Nancy Lee — WDI7558 — position and weather

sailwx.info

Track history (hours):
 
Tides and Currents Weather Stations Pressure Air Temp Water Temp Dewpoint Dewpoint Depression Visibility Wind Speed Wind Dir Waves Ship Positions

Nancy Lee

Owner: Kelley, Dan, Green Cove Springs, FL. More information available from US FCC via Universal Licensing System and Coast Guard Vessel Documentation Center.

Last reported at 2018-Mar-24 11:53 UTC. Time now 2018-Apr-19 11:17 UTC.
Position N 34°38' W 076°44'.
Warning: this ship's position is 25 days out of date.

Length 13 m.

Type: Pleasure craft. MMSI: 366981620.

Date/timePositionNaut miles runAvg speedWind from/ knotsBaromVisibWave heightAir tempDewpointWater temp
2018-Mar-24 11:53N 34°38' W 076°44'3 7.2
2018-Mar-24 11:30N 34°39' W 076°42'3 6.2
2018-Mar-24 11:00N 34°42' W 076°41'1 2.1
2018-Mar-24 10:30N 34°43' W 076°43'0 0.0
2018-Mar-24 10:00N 34°43' W 076°43'0 0.0
2018-Mar-24 09:30N 34°43' W 076°43'0 0.0
2018-Mar-24 09:00N 34°43' W 076°43'0 0.0
2018-Mar-24 08:29N 34°43' W 076°43'0 0.0
2018-Mar-24 07:59N 34°43' W 076°43'0 0.0
2018-Mar-24 07:29N 34°43' W 076°43'0 0.0
2018-Mar-24 06:59N 34°43' W 076°43'0 0.0
2018-Mar-24 06:29N 34°43' W 076°43'0 0.0
2018-Mar-24 05:59N 34°43' W 076°43'0 0.0
2018-Mar-24 05:29N 34°43' W 076°43'0 0.0
2018-Mar-24 04:59N 34°43' W 076°43'0 0.0
2018-Mar-24 04:29N 34°43' W 076°43'0 0.0
2018-Mar-24 03:59N 34°43' W 076°43'0 0.0
2018-Mar-24 03:29N 34°43' W 076°43'0 0.0
2018-Mar-24 02:59N 34°43' W 076°43'0 0.0
2018-Mar-24 02:29N 34°43' W 076°43'0 0.0
2018-Mar-24 01:59N 34°43' W 076°43'0 0.0
2018-Mar-24 01:29N 34°43' W 076°43'0 0.0
2018-Mar-24 00:59N 34°43' W 076°43'0 0.0
2018-Mar-24 00:29N 34°43' W 076°43'0 0.0
2018-Mar-23 23:59N 34°43' W 076°43'0 0.0
2018-Mar-23 23:29N 34°43' W 076°43'0 0.0
2018-Mar-23 22:59N 34°43' W 076°43'0 0.0
2018-Mar-23 22:29N 34°43' W 076°43'0 0.0
2018-Mar-23 21:59N 34°43' W 076°43'0 0.0
2018-Mar-23 21:29N 34°43' W 076°43'0 0.0
2018-Mar-23 20:59N 34°43' W 076°43'0 0.0
2018-Mar-23 20:29N 34°43' W 076°43'1 1.7
2018-Mar-23 20:00N 34°43' W 076°42'4 7.0
2018-Mar-23 19:29N 34°47' W 076°41'  
2018-Mar-17 18:37N 36°44' W 076°16'2 5.0
2018-Mar-17 18:19N 36°45' W 076°18'2 5.5
2018-Mar-17 18:00N 36°47' W 076°18'2 4.0
2018-Mar-17 17:30N 36°49' W 076°17'10 5.6
2018-Mar-17 15:47N 36°58' W 076°20'2 5.8
2018-Mar-17 15:26N 36°59' W 076°18'3 6.5
2018-Mar-17 14:59N 37°02' W 076°16'3 5.9
2018-Mar-17 14:27N 37°05' W 076°15'  
Track history (hours):
 
Tides and Currents Weather Stations Pressure Air Temp Water Temp Dewpoint Dewpoint Depression Visibility Wind Speed Wind Dir Waves Ship Positions

Nancy Lee

Owner: Kelley, Dan, Green Cove Springs, FL. More information available from US FCC via Universal Licensing System and Coast Guard Vessel Documentation Center.

Last reported at 2018-Mar-24 11:53 UTC. Time now 2018-Apr-19 11:17 UTC.
Position N 34°38' W 076°44'.
Warning: this ship's position is 25 days out of date.

Length 13 m.

Type: Pleasure craft. MMSI: 366981620.

Date/timePositionNaut miles runAvg speedWind from/ knotsBaromVisibWave heightAir tempDewpointWater temp
2018-Mar-24 11:53N 34°38' W 076°44'3 7.2
2018-Mar-24 11:30N 34°39' W 076°42'3 6.2
2018-Mar-24 11:00N 34°42' W 076°41'1 2.1
2018-Mar-24 10:30N 34°43' W 076°43'0 0.0
2018-Mar-24 10:00N 34°43' W 076°43'0 0.0
2018-Mar-24 09:30N 34°43' W 076°43'0 0.0
2018-Mar-24 09:00N 34°43' W 076°43'0 0.0
2018-Mar-24 08:29N 34°43' W 076°43'0 0.0
2018-Mar-24 07:59N 34°43' W 076°43'0 0.0
2018-Mar-24 07:29N 34°43' W 076°43'0 0.0
2018-Mar-24 06:59N 34°43' W 076°43'0 0.0
2018-Mar-24 06:29N 34°43' W 076°43'0 0.0
2018-Mar-24 05:59N 34°43' W 076°43'0 0.0
2018-Mar-24 05:29N 34°43' W 076°43'0 0.0
2018-Mar-24 04:59N 34°43' W 076°43'0 0.0
2018-Mar-24 04:29N 34°43' W 076°43'0 0.0
2018-Mar-24 03:59N 34°43' W 076°43'0 0.0
2018-Mar-24 03:29N 34°43' W 076°43'0 0.0
2018-Mar-24 02:59N 34°43' W 076°43'0 0.0
2018-Mar-24 02:29N 34°43' W 076°43'0 0.0
2018-Mar-24 01:59N 34°43' W 076°43'0 0.0
2018-Mar-24 01:29N 34°43' W 076°43'0 0.0
2018-Mar-24 00:59N 34°43' W 076°43'0 0.0
2018-Mar-24 00:29N 34°43' W 076°43'0 0.0
2018-Mar-23 23:59N 34°43' W 076°43'0 0.0
2018-Mar-23 23:29N 34°43' W 076°43'0 0.0
2018-Mar-23 22:59N 34°43' W 076°43'0 0.0
2018-Mar-23 22:29N 34°43' W 076°43'0 0.0
2018-Mar-23 21:59N 34°43' W 076°43'0 0.0
2018-Mar-23 21:29N 34°43' W 076°43'0 0.0
2018-Mar-23 20:59N 34°43' W 076°43'0 0.0
2018-Mar-23 20:29N 34°43' W 076°43'1 1.7
2018-Mar-23 20:00N 34°43' W 076°42'4 7.0
2018-Mar-23 19:29N 34°47' W 076°41'  
2018-Mar-17 18:37N 36°44' W 076°16'2 5.0
2018-Mar-17 18:19N 36°45' W 076°18'2 5.5
2018-Mar-17 18:00N 36°47' W 076°18'2 4.0
2018-Mar-17 17:30N 36°49' W 076°17'10 5.6
2018-Mar-17 15:47N 36°58' W 076°20'2 5.8
2018-Mar-17 15:26N 36°59' W 076°18'3 6.5
2018-Mar-17 14:59N 37°02' W 076°16'3 5.9
2018-Mar-17 14:27N 37°05' W 076°15'  

Dump ship's entire track history